Time;durP1;ratioP1;P1;durP2;ratioP2;P2;SDS_P1;SDS_P2;PMS_P1;PMS_P2;Temp;Humidity;BMP_temperature;BMP_pressure;BME280_temperature;BME280_humidity;BME280_pressure;Samples;Min_cycle;Max_cycle;Signal;HPM_P1;HPM_P2
2023/01/07 00:01:43;;;;;;;;;;;;;;;15.90;100.00;96856.66;5049329;28;19981;-44
2023/01/07 00:04:12;;;;;;;;;;;;;;;15.79;100.00;96852.47;5054344;28;20420;-45
2023/01/07 00:06:40;;;;;;;;;;;;;;;15.54;100.00;96848.16;5052103;28;20015;-43
2023/01/07 00:09:11;;;;;;;;;;;;;;;15.77;100.00;96851.84;5050080;28;19964;-43
2023/01/07 00:11:40;;;;;;;;;;;;;;;15.93;100.00;96850.97;5053748;28;20456;-42
2023/01/07 00:14:09;;;;;;;;;;;;;;;15.69;100.00;96848.34;5053668;28;19956;-41
2023/01/07 00:16:37;;;;;;;;;;;;;;;15.59;100.00;96849.31;5054545;28;20393;-50
2023/01/07 00:19:07;;;;;;;;;;;;;;;15.69;100.00;96848.34;5055332;28;20435;-43
2023/01/07 00:21:34;;;;;;;;;;;;;;;15.77;100.00;96848.34;5053920;28;20411;-42
2023/01/07 00:24:04;;;;;;;;;;;;;;;15.89;100.00;96853.13;5053854;28;19962;-41
2023/01/07 00:26:32;;;;;;;;;;;;;;;15.88;100.00;96851.47;5051756;28;19955;-43
2023/01/07 00:29:00;;;;;;;;;;;;;;;15.99;100.00;96847.63;5049822;28;20098;-41
2023/01/07 00:31:29;;;;;;;;;;;;;;;16.03;100.00;96850.78;5056624;28;19999;-45
2023/01/07 00:34:07;;;;;;;;;;;;;;;16.01;100.00;96839.50;5047224;28;20027;-43
2023/01/07 00:36:38;;;;;;;;;;;;;;;15.89;100.00;96839.00;5052095;28;19972;-44
2023/01/07 00:39:08;;;;;;;;;;;;;;;15.97;100.00;96839.03;5051850;28;20022;-46
2023/01/07 00:41:36;;;;;;;;;;;;;;;16.04;100.00;96833.84;5060456;28;19948;-44
2023/01/07 00:44:05;;;;;;;;;;;;;;;15.93;100.00;96840.31;5055018;28;19972;-46
2023/01/07 00:46:33;;;;;;;;;;;;;;;15.96;100.00;96832.00;5052683;28;19955;-41
2023/01/07 00:49:01;;;;;;;;;;;;;;;15.66;100.00;96825.59;5050144;28;19952;-43
2023/01/07 00:51:29;;;;;;;;;;;;;;;15.92;100.00;96829.88;5053954;28;19951;-41
2023/01/07 00:53:58;;;;;;;;;;;;;;;15.97;100.00;96830.22;5057111;28;20463;-41
2023/01/07 00:56:26;;;;;;;;;;;;;;;16.00;100.00;96836.03;5059902;28;19964;-50
2023/01/07 00:58:54;;;;;;;;;;;;;;;16.06;100.00;96830.00;5055995;28;19964;-41
2023/01/07 01:01:22;;;;;;;;;;;;;;;16.07;100.00;96831.69;5050776;28;19956;-46
2023/01/07 01:03:50;;;;;;;;;;;;;;;16.08;100.00;96833.34;5053307;28;19956;-40
2023/01/07 01:06:19;;;;;;;;;;;;;;;16.08;100.00;96832.50;5055817;28;19964;-44
2023/01/07 01:08:47;;;;;;;;;;;;;;;15.77;100.00;96825.25;5055965;28;19963;-40
2023/01/07 01:11:16;;;;;;;;;;;;;;;15.76;100.00;96823.59;5055461;28;19956;-39
2023/01/07 01:13:45;;;;;;;;;;;;;;;15.90;100.00;96835.38;5054165;28;19975;-43
2023/01/07 01:16:16;;;;;;;;;;;;;;;15.90;100.00;96833.53;5053393;28;20379;-43
2023/01/07 01:18:44;;;;;;;;;;;;;;;15.68;100.00;96833.38;5054643;28;19963;-43
2023/01/07 01:21:13;;;;;;;;;;;;;;;15.71;100.00;96831.22;5052227;28;19964;-46
2023/01/07 01:23:41;;;;;;;;;;;;;;;15.74;100.00;96824.75;5051433;28;19975;-40
2023/01/07 01:26:10;;;;;;;;;;;;;;;15.78;100.00;96826.91;5059012;28;19963;-39
2023/01/07 01:28:40;;;;;;;;;;;;;;;15.86;100.00;96836.69;5052130;28;19968;-40
2023/01/07 01:31:08;;;;;;;;;;;;;;;15.89;100.00;96831.84;5051928;28;20343;-43
2023/01/07 01:33:36;;;;;;;;;;;;;;;15.90;100.00;96827.41;5050529;28;19972;-43
2023/01/07 01:36:04;;;;;;;;;;;;;;;15.92;100.00;96824.56;5058063;28;19968;-40
2023/01/07 01:38:32;;;;;;;;;;;;;;;15.32;100.00;96834.53;5054173;28;19947;-44
2023/01/07 01:41:00;;;;;;;;;;;;;;;15.74;100.00;96816.78;5051831;28;19967;-47
2023/01/07 01:43:29;;;;;;;;;;;;;;;15.65;100.00;96815.91;5050416;28;19984;-39
2023/01/07 01:45:59;;;;;;;;;;;;;;;15.69;100.00;96817.28;5052115;28;20327;-40
2023/01/07 01:48:28;;;;;;;;;;;;;;;15.73;100.00;96817.78;5052496;28;19963;-41
2023/01/07 01:50:56;;;;;;;;;;;;;;;15.21;100.00;96816.25;5054947;28;19971;-47
2023/01/07 01:53:25;;;;;;;;;;;;;;;14.96;100.00;96823.34;5052600;28;19963;-46
2023/01/07 01:55:53;;;;;;;;;;;;;;;15.02;100.00;96811.25;5049206;28;19966;-42
2023/01/07 01:58:23;;;;;;;;;;;;;;;14.68;100.00;96820.13;5058618;28;20017;-41
2023/01/07 02:00:51;;;;;;;;;;;;;;;14.65;100.00;96815.94;5052196;28;20355;-41
2023/01/07 02:03:20;;;;;;;;;;;;;;;14.38;100.00;96814.38;5054675;28;20408;-45
2023/01/07 02:05:48;;;;;;;;;;;;;;;14.57;100.00;96815.94;5055272;28;19976;-41
2023/01/07 02:08:20;;;;;;;;;;;;;;;14.78;100.00;96817.34;5052240;28;20382;-43
2023/01/07 02:10:49;;;;;;;;;;;;;;;14.53;100.00;96816.44;5050513;28;19986;-45
2023/01/07 02:13:21;;;;;;;;;;;;;;;14.72;100.00;96805.53;5071385;28;19960;-40
2023/01/07 02:15:51;;;;;;;;;;;;;;;14.88;100.00;96802.91;5056387;28;19964;-43
2023/01/07 02:18:23;;;;;;;;;;;;;;;15.18;100.00;96793.50;5055140;28;19971;-41
2023/01/07 02:20:57;;;;;;;;;;;;;;;15.34;100.00;96790.00;5057690;28;19962;-40
2023/01/07 02:23:36;;;;;;;;;;;;;;;15.46;100.00;96790.50;5056201;28;20391;-44
2023/01/07 02:26:16;;;;;;;;;;;;;;;15.49;100.00;96794.66;5057933;28;19960;-42
2023/01/07 02:28:58;;;;;;;;;;;;;;;15.34;100.00;96787.34;5055602;28;19952;-44
2023/01/07 02:31:30;;;;;;;;;;;;;;;15.06;100.00;96788.66;5052423;28;19978;-41
2023/01/07 02:33:59;;;;;;;;;;;;;;;14.79;100.00;96779.97;5057095;28;20978;-42
2023/01/07 02:36:32;;;;;;;;;;;;;;;15.00;100.00;96779.50;5054513;28;19963;-42
2023/01/07 02:39:05;;;;;;;;;;;;;;;14.37;100.00;96777.34;5054924;28;19975;-42
2023/01/07 02:41:35;;;;;;;;;;;;;;;14.06;100.00;96777.06;5057962;28;19956;-47
2023/01/07 02:44:04;;;;;;;;;;;;;;;13.78;100.00;96779.91;5057227;28;19963;-44
2023/01/07 02:46:33;;;;;;;;;;;;;;;13.96;100.00;96783.31;5059400;28;19971;-43
2023/01/07 02:49:06;;;;;;;;;;;;;;;14.22;100.00;96774.50;5062896;28;19960;-46
2023/01/07 02:51:34;;;;;;;;;;;;;;;14.95;100.00;96764.09;5059319;28;19952;-45
2023/01/07 02:54:02;;;;;;;;;;;;;;;15.17;100.00;96764.44;5058559;28;21780;-43
2023/01/07 02:56:32;;;;;;;;;;;;;;;15.24;100.00;96760.09;5055209;28;20058;-46
2023/01/07 02:59:18;;;;;;;;;;;;;;;15.10;100.00;96761.59;5056504;28;19968;-43
2023/01/07 03:02:00;;;;;;;;;;;;;;;14.15;100.00;96766.34;5055788;28;19959;-47
2023/01/07 03:04:34;;;;;;;;;;;;;;;14.56;100.00;96763.88;5049976;28;20400;-43
2023/01/07 03:07:09;;;;;;;;;;;;;;;14.86;100.00;96759.75;5051601;28;20017;-42
2023/01/07 03:09:39;;;;;;;;;;;;;;;14.57;100.00;96751.41;5058928;28;20395;-43
2023/01/07 03:12:08;;;;;;;;;;;;;;;14.37;100.00;96759.63;5058928;28;20423;-42
2023/01/07 03:14:38;;;;;;;;;;;;;;;14.51;100.00;96750.22;5054462;28;19995;-49
2023/01/07 03:17:06;;;;;;;;;;;;;;;14.68;100.00;96740.47;5055683;28;19970;-40
2023/01/07 03:19:36;;;;;;;;;;;;;;;14.83;100.00;96743.31;5051350;28;20364;-44
2023/01/07 03:22:05;;;;;;;;;;;;;;;15.00;100.00;96744.16;5055023;28;19971;-45
2023/01/07 03:24:33;;;;;;;;;;;;;;;15.01;100.00;96735.22;5054883;28;19963;-46
2023/01/07 03:27:01;;;;;;;;;;;;;;;15.14;100.00;96735.53;5060788;28;19963;-46
2023/01/07 03:29:31;;;;;;;;;;;;;;;15.33;100.00;96735.19;5054871;28;20424;-45
2023/01/07 03:31:59;;;;;;;;;;;;;;;15.34;100.00;96728.06;5053584;28;20526;-44
2023/01/07 03:34:27;;;;;;;;;;;;;;;15.35;100.00;96732.41;5053363;28;20371;-44
2023/01/07 03:36:57;;;;;;;;;;;;;;;15.32;100.00;96738.03;5058323;28;19966;-39
2023/01/07 03:39:26;;;;;;;;;;;;;;;15.48;100.00;96730.03;5060538;28;20364;-40
2023/01/07 03:44:40;;;;;;;;;;;;;;;14.44;100.00;96728.78;5051631;28;19952;-48
2023/01/07 03:47:08;;;;;;;;;;;;;;;14.08;100.00;96740.63;5057772;28;19964;-44
2023/01/07 03:49:36;;;;;;;;;;;;;;;14.27;100.00;96727.06;5055909;28;19959;-42
2023/01/07 03:52:07;;;;;;;;;;;;;;;14.34;100.00;96728.09;5060757;28;19960;-42
2023/01/07 03:54:34;;;;;;;;;;;;;;;14.10;100.00;96722.72;5059834;28;19964;-46
2023/01/07 03:57:03;;;;;;;;;;;;;;;14.24;100.00;96716.78;5050338;28;19956;-42
2023/01/07 03:59:31;;;;;;;;;;;;;;;13.89;100.00;96717.81;5055166;28;19967;-43
2023/01/07 04:01:58;;;;;;;;;;;;;;;13.76;100.00;96708.50;5052377;28;20088;-44
2023/01/07 04:04:27;;;;;;;;;;;;;;;13.64;100.00;96711.56;5052571;28;20712;-46
2023/01/07 04:06:55;;;;;;;;;;;;;;;14.02;100.00;96705.78;5057087;28;20086;-46
2023/01/07 04:09:24;;;;;;;;;;;;;;;13.65;100.00;96706.09;5053632;28;20050;-42
2023/01/07 04:11:52;;;;;;;;;;;;;;;13.58;100.00;96702.41;5051642;28;20365;-43
2023/01/07 04:14:20;;;;;;;;;;;;;;;13.88;100.00;96695.78;5054470;28;20400;-41
2023/01/07 04:16:49;;;;;;;;;;;;;;;13.75;100.00;96688.25;5051949;28;19972;-44
2023/01/07 04:19:18;;;;;;;;;;;;;;;14.15;100.00;96681.47;5053510;28;20405;-41
2023/01/07 04:21:46;;;;;;;;;;;;;;;13.49;100.00;96685.66;5056275;28;19959;-43
2023/01/07 04:24:14;;;;;;;;;;;;;;;13.53;100.00;96687.00;5057297;28;19983;-46
2023/01/07 04:26:43;;;;;;;;;;;;;;;13.39;100.00;96686.75;5054284;28;20360;-47
2023/01/07 04:29:12;;;;;;;;;;;;;;;13.66;100.00;96680.44;5057538;28;19960;-40
2023/01/07 04:31:39;;;;;;;;;;;;;;;13.55;100.00;96678.88;5053541;28;19968;-42
2023/01/07 04:34:07;;;;;;;;;;;;;;;13.49;100.00;96679.53;5053500;28;19968;-41
2023/01/07 04:36:35;;;;;;;;;;;;;;;13.70;100.00;96674.66;5058178;28;19959;-43
2023/01/07 04:39:04;;;;;;;;;;;;;;;13.78;100.00;96669.41;5049121;28;19964;-40
2023/01/07 04:41:32;;;;;;;;;;;;;;;13.66;100.00;96670.69;5051145;28;20447;-43
2023/01/07 04:44:01;;;;;;;;;;;;;;;13.50;100.00;96666.13;5057039;28;19964;-40
2023/01/07 04:46:29;;;;;;;;;;;;;;;13.38;100.00;96669.19;5050359;28;19963;-42
2023/01/07 04:48:57;;;;;;;;;;;;;;;13.47;100.00;96665.59;5055095;28;19955;-43
2023/01/07 04:51:25;;;;;;;;;;;;;;;13.67;100.00;96658.25;5072047;28;19971;-43
2023/01/07 04:53:55;;;;;;;;;;;;;;;13.47;100.00;96657.66;5059102;28;19956;-47
2023/01/07 04:56:23;;;;;;;;;;;;;;;13.54;100.00;96653.38;5052184;28;19975;-39
2023/01/07 04:58:51;;;;;;;;;;;;;;;13.45;100.00;96647.19;5052759;28;19959;-41
2023/01/07 05:01:21;;;;;;;;;;;;;;;13.10;100.00;96650.78;5053248;28;19959;-45
2023/01/07 05:03:49;;;;;;;;;;;;;;;13.07;100.00;96646.66;5050476;28;19982;-46
2023/01/07 05:06:17;;;;;;;;;;;;;;;13.10;100.00;96647.31;5056253;28;19955;-40
2023/01/07 05:08:45;;;;;;;;;;;;;;;13.09;100.00;96640.34;5053104;28;19960;-44
2023/01/07 05:11:14;;;;;;;;;;;;;;;13.85;100.00;96629.81;5052885;28;20687;-46
2023/01/07 05:13:42;;;;;;;;;;;;;;;13.67;100.00;96635.22;5054355;28;19959;-47
2023/01/07 05:16:10;;;;;;;;;;;;;;;13.50;100.00;96636.97;5059123;28;20404;-46
2023/01/07 05:18:39;;;;;;;;;;;;;;;13.03;100.00;96639.16;5050697;28;20006;-45
2023/01/07 05:21:09;;;;;;;;;;;;;;;13.36;100.00;96628.81;5051557;28;19952;-49
2023/01/07 05:23:37;;;;;;;;;;;;;;;13.65;100.00;96613.34;5053971;28;20404;-42
2023/01/07 05:26:06;;;;;;;;;;;;;;;13.50;100.00;96615.78;5051917;28;19956;-49
2023/01/07 05:28:34;;;;;;;;;;;;;;;13.29;100.00;96612.72;5051047;28;19983;-41
2023/01/07 05:31:02;;;;;;;;;;;;;;;13.01;100.00;96612.84;5056487;28;20552;-45
2023/01/07 05:33:30;;;;;;;;;;;;;;;13.11;100.00;96611.88;5055022;28;19960;-40
2023/01/07 05:35:59;;;;;;;;;;;;;;;13.32;100.00;96612.41;5048473;28;19974;-43
2023/01/07 05:38:27;;;;;;;;;;;;;;;13.34;100.00;96606.94;5055968;28;19952;-45
2023/01/07 05:40:56;;;;;;;;;;;;;;;13.30;100.00;96606.41;5049600;28;19967;-47
2023/01/07 05:43:24;;;;;;;;;;;;;;;12.95;100.00;96604.69;5055072;28;19960;-47
2023/01/07 05:45:54;;;;;;;;;;;;;;;13.08;100.00;96599.81;5054908;28;19967;-42
2023/01/07 05:48:22;;;;;;;;;;;;;;;13.01;100.00;96599.63;5053253;28;19964;-46
2023/01/07 05:50:50;;;;;;;;;;;;;;;12.90;100.00;96596.38;5050945;28;19982;-40
2023/01/07 05:53:20;;;;;;;;;;;;;;;13.07;100.00;96600.78;5062675;28;20404;-46
2023/01/07 05:55:48;;;;;;;;;;;;;;;13.90;100.00;96589.56;5052441;28;19948;-45
2023/01/07 05:58:16;;;;;;;;;;;;;;;13.92;100.00;96583.13;5060899;28;19959;-43
2023/01/07 06:00:44;;;;;;;;;;;;;;;13.89;100.00;96579.97;5060905;28;20372;-46
2023/01/07 06:03:12;;;;;;;;;;;;;;;14.19;100.00;96576.69;5057658;28;19956;-39
2023/01/07 06:05:40;;;;;;;;;;;;;;;13.80;100.00;96573.81;5063684;28;20019;-42
2023/01/07 06:08:08;;;;;;;;;;;;;;;13.79;100.00;96585.41;5062604;28;20368;-43
2023/01/07 06:10:37;;;;;;;;;;;;;;;13.56;100.00;96579.03;5057964;28;19963;-42
2023/01/07 06:13:05;;;;;;;;;;;;;;;14.04;100.00;96577.50;5054843;28;19955;-39
2023/01/07 06:15:34;;;;;;;;;;;;;;;14.01;100.00;96573.38;5055874;28;19979;-40
2023/01/07 06:18:02;;;;;;;;;;;;;;;13.42;100.00;96576.03;5070942;28;20006;-42
2023/01/07 06:20:33;;;;;;;;;;;;;;;13.72;100.00;96563.19;5069909;28;19963;-45
2023/01/07 06:23:01;;;;;;;;;;;;;;;13.67;100.00;96568.16;5063763;28;21517;-43
2023/01/07 06:25:30;;;;;;;;;;;;;;;13.83;100.00;96565.53;5063397;28;19955;-42
2023/01/07 06:27:59;;;;;;;;;;;;;;;13.52;100.00;96567.91;5056286;28;19960;-39
2023/01/07 06:30:27;;;;;;;;;;;;;;;13.33;100.00;96573.50;5057852;28;19967;-45
2023/01/07 06:32:55;;;;;;;;;;;;;;;13.80;100.00;96565.03;5060638;28;19970;-41
2023/01/07 06:35:23;;;;;;;;;;;;;;;13.47;100.00;96576.34;5063686;28;19975;-41
2023/01/07 06:37:51;;;;;;;;;;;;;;;13.33;100.00;96573.50;5059720;28;19967;-41
2023/01/07 06:40:19;;;;;;;;;;;;;;;13.27;100.00;96575.78;5058777;28;19960;-41
2023/01/07 06:42:47;;;;;;;;;;;;;;;13.39;100.00;96570.22;5056005;28;20397;-43
2023/01/07 06:45:17;;;;;;;;;;;;;;;13.42;100.00;96564.56;5059855;28;20035;-42
2023/01/07 06:47:47;;;;;;;;;;;;;;;12.49;100.00;96569.63;5055851;28;19947;-41
2023/01/07 06:50:15;;;;;;;;;;;;;;;12.54;100.00;96568.19;5058706;28;19960;-43
2023/01/07 06:52:43;;;;;;;;;;;;;;;12.49;100.00;96565.19;5058189;28;19960;-46
2023/01/07 06:55:11;;;;;;;;;;;;;;;12.38;100.00;96561.94;5054954;28;19960;-43
2023/01/07 06:57:39;;;;;;;;;;;;;;;12.33;100.00;96563.25;5058848;28;20399;-42
2023/01/07 07:00:08;;;;;;;;;;;;;;;12.29;100.00;96561.88;5058510;28;19963;-47
2023/01/07 07:02:37;;;;;;;;;;;;;;;11.78;100.00;96560.72;5055185;28;20345;-41
2023/01/07 07:05:06;;;;;;;;;;;;;;;12.05;100.00;96554.56;5060548;28;19963;-41
2023/01/07 07:07:34;;;;;;;;;;;;;;;11.57;100.00;96555.72;5056127;28;20400;-42
2023/01/07 07:10:06;;;;;;;;;;;;;;;11.90;100.00;96555.25;5058089;28;19967;-42
2023/01/07 07:12:34;;;;;;;;;;;;;;;11.44;100.00;96554.41;5055454;28;19978;-41
2023/01/07 07:15:02;;;;;;;;;;;;;;;11.27;100.00;96563.94;5050357;28;19982;-41
2023/01/07 07:17:30;;;;;;;;;;;;;;;11.18;100.00;96555.06;5057622;28;19955;-43
2023/01/07 07:19:59;;;;;;;;;;;;;;;11.45;100.00;96558.69;5055796;28;19966;-43
2023/01/07 07:22:27;;;;;;;;;;;;;;;11.34;100.00;96562.38;5058177;28;19956;-41
2023/01/07 07:24:55;;;;;;;;;;;;;;;10.95;100.00;96564.34;5050926;28;19998;-39
2023/01/07 07:27:23;;;;;;;;;;;;;;;11.04;100.00;96564.28;5062873;28;19952;-40
2023/01/07 07:29:51;;;;;;;;;;;;;;;10.98;100.00;96562.25;5052622;28;19955;-41
2023/01/07 07:32:19;;;;;;;;;;;;;;;10.79;100.00;96563.13;5058322;28;19960;-39
2023/01/07 07:34:47;;;;;;;;;;;;;;;10.62;100.00;96561.25;5057473;28;20372;-39
2023/01/07 07:37:16;;;;;;;;;;;;;;;10.79;100.00;96557.03;5053699;28;19959;-40
2023/01/07 07:39:44;;;;;;;;;;;;;;;11.25;100.00;96553.53;5059093;28;20462;-40
2023/01/07 07:42:12;;;;;;;;;;;;;;;11.28;100.00;96549.75;5057219;28;19951;-39
2023/01/07 07:44:40;;;;;;;;;;;;;;;11.34;100.00;96550.00;5060574;28;20369;-45
2023/01/07 07:47:11;;;;;;;;;;;;;;;11.24;100.00;96548.38;5062777;28;19963;-42
2023/01/07 07:49:39;;;;;;;;;;;;;;;11.21;100.00;96549.50;5064400;28;19971;-42
2023/01/07 07:52:07;;;;;;;;;;;;;;;11.54;100.00;96541.97;5056411;28;20102;-42
2023/01/07 07:54:37;;;;;;;;;;;;;;;11.71;100.00;96540.34;5060802;28;19960;-43
2023/01/07 07:57:05;;;;;;;;;;;;;;;11.59;100.00;96537.88;5058708;28;19967;-42
2023/01/07 07:59:33;;;;;;;;;;;;;;;11.12;100.00;96538.03;5052113;28;19955;-36
2023/01/07 08:02:00;;;;;;;;;;;;;;;11.87;100.00;96529.94;5058615;28;19956;-36
2023/01/07 08:04:32;;;;;;;;;;;;;;;11.68;100.00;96532.72;5061680;28;19964;-38
2023/01/07 08:07:00;;;;;;;;;;;;;;;11.63;100.00;96527.84;5055637;28;19960;-37
2023/01/07 08:09:28;;;;;;;;;;;;;;;11.35;100.00;96530.53;5053609;28;19968;-39
2023/01/07 08:11:58;;;;;;;;;;;;;;;11.30;100.00;96522.22;5052754;28;19959;-43
2023/01/07 08:14:26;;;;;;;;;;;;;;;11.64;100.00;96519.78;5055509;28;19967;-41
2023/01/07 08:16:54;;;;;;;;;;;;;;;11.89;100.00;96517.41;5058292;28;19998;-40
2023/01/07 08:19:22;;;;;;;;;;;;;;;11.85;100.00;96505.50;5050545;28;19963;-38
2023/01/07 08:21:50;;;;;;;;;;;;;;;11.39;100.00;96508.16;5049977;28;19956;-40
2023/01/07 08:24:18;;;;;;;;;;;;;;;11.14;100.00;96511.47;5052459;28;20682;-47
2023/01/07 08:26:46;;;;;;;;;;;;;;;10.99;100.00;96505.03;5057245;28;19952;-38
2023/01/07 08:29:16;;;;;;;;;;;;;;;12.06;100.00;96506.00;5051613;28;19952;-41
2023/01/07 08:31:44;;;;;;;;;;;;;;;12.33;100.00;96496.31;5057856;28;19975;-41
2023/01/07 08:34:12;;;;;;;;;;;;;;;12.11;100.00;96498.47;5052938;28;19956;-41
2023/01/07 08:36:40;;;;;;;;;;;;;;;12.26;100.00;96496.09;5055183;28;19975;-43
2023/01/07 08:39:08;;;;;;;;;;;;;;;12.08;100.00;96492.66;5055235;28;19967;-38
2023/01/07 08:41:36;;;;;;;;;;;;;;;12.73;100.00;96487.81;5049548;28;19964;-38
2023/01/07 08:44:04;;;;;;;;;;;;;;;12.70;100.00;96487.28;5057392;28;19975;-43
2023/01/07 08:46:34;;;;;;;;;;;;;;;12.63;100.00;96480.94;5052623;28;19956;-41
2023/01/07 08:49:02;;;;;;;;;;;;;;;12.28;100.00;96475.59;5057556;28;20471;-42
2023/01/07 08:51:30;;;;;;;;;;;;;;;12.76;100.00;96482.16;5055157;28;19960;-43
2023/01/07 08:53:58;;;;;;;;;;;;;;;13.16;100.00;96469.28;5056206;28;19959;-44
2023/01/07 08:56:26;;;;;;;;;;;;;;;13.22;100.00;96472.13;5053622;28;20006;-42
2023/01/07 08:58:54;;;;;;;;;;;;;;;13.38;100.00;96460.75;5056350;28;19967;-45
2023/01/07 09:01:22;;;;;;;;;;;;;;;13.46;100.00;96468.75;5052893;28;20006;-40
2023/01/07 09:03:51;;;;;;;;;;;;;;;13.53;100.00;96467.09;5053625;28;19971;-44
2023/01/07 09:06:19;;;;;;;;;;;;;;;13.57;100.00;96464.94;5052076;28;19975;-38
2023/01/07 09:08:47;;;;;;;;;;;;;;;12.34;100.00;96467.06;5056444;28;19953;-43
2023/01/07 09:11:15;;;;;;;;;;;;;;;13.41;100.00;96465.72;5051687;28;19962;-40
2023/01/07 09:13:43;;;;;;;;;;;;;;;13.66;100.00;96468.44;5060497;28;20538;-43
2023/01/07 09:16:12;;;;;;;;;;;;;;;13.62;100.00;96461.81;5055625;28;19964;-46
2023/01/07 09:18:40;;;;;;;;;;;;;;;13.73;100.00;96461.50;5052595;28;19963;-40
2023/01/07 09:21:09;;;;;;;;;;;;;;;13.39;100.00;96456.31;5056837;28;19994;-39
2023/01/07 09:23:37;;;;;;;;;;;;;;;13.96;100.00;96451.88;5058892;28;20395;-47
2023/01/07 09:26:06;;;;;;;;;;;;;;;14.04;98.61;96452.88;5057283;28;19968;-42
2023/01/07 09:28:34;;;;;;;;;;;;;;;14.16;97.55;96446.25;5058487;28;20630;-46
2023/01/07 09:31:03;;;;;;;;;;;;;;;14.04;100.00;96447.56;5055527;28;19952;-43
2023/01/07 09:33:30;;;;;;;;;;;;;;;14.31;97.31;96451.69;5059730;28;19964;-43
2023/01/07 09:35:59;;;;;;;;;;;;;;;14.25;97.97;96448.72;5058319;28;19955;-42
2023/01/07 09:38:29;;;;;;;;;;;;;;;13.59;100.00;96459.47;5058770;28;20360;-39
2023/01/07 09:40:57;;;;;;;;;;;;;;;14.30;100.00;96450.88;5062747;28;19960;-39
2023/01/07 09:43:27;;;;;;;;;;;;;;;14.48;97.94;96448.84;5066282;28;19967;-42
2023/01/07 09:46:15;;;;;;;;;;;;;;;14.32;100.00;96450.72;5060081;28;19979;-44
2023/01/07 09:48:43;;;;;;;;;;;;;;;14.47;98.27;96443.72;5062138;28;20352;-42
2023/01/07 09:51:12;;;;;;;;;;;;;;;14.45;100.00;96435.94;5055196;28;20404;-42
2023/01/07 09:53:42;;;;;;;;;;;;;;;14.66;98.00;96430.09;5058692;28;19956;-41
2023/01/07 09:56:12;;;;;;;;;;;;;;;14.65;98.17;96425.78;5052785;28;20404;-40
2023/01/07 09:58:41;;;;;;;;;;;;;;;14.44;100.00;96422.81;5062564;28;19971;-41
2023/01/07 10:01:14;;;;;;;;;;;;;;;14.21;100.00;96430.66;5060369;28;19985;-45
2023/01/07 10:03:45;;;;;;;;;;;;;;;13.47;100.00;96422.72;5059008;28;19963;-45
2023/01/07 10:06:15;;;;;;;;;;;;;;;13.60;100.00;96421.41;5051477;28;19968;-45
2023/01/07 10:08:48;;;;;;;;;;;;;;;14.27;100.00;96414.06;5061220;28;19964;-42
2023/01/07 10:11:19;;;;;;;;;;;;;;;14.12;100.00;96408.63;5060641;28;20427;-41
2023/01/07 10:13:50;;;;;;;;;;;;;;;13.17;100.00;96412.69;5060677;28;19960;-44
2023/01/07 10:16:19;;;;;;;;;;;;;;;13.44;100.00;96401.00;5057368;28;19975;-43
2023/01/07 10:18:49;;;;;;;;;;;;;;;13.27;100.00;96395.69;5064434;28;19958;-40
2023/01/07 10:21:18;;;;;;;;;;;;;;;13.54;100.00;96402.50;5061526;28;19971;-41
2023/01/07 10:23:49;;;;;;;;;;;;;;;13.26;100.00;96398.50;5053236;28;19952;-41
2023/01/07 10:26:21;;;;;;;;;;;;;;;13.32;100.00;96397.88;5062452;28;20038;-46
2023/01/07 10:28:50;;;;;;;;;;;;;;;13.65;100.00;96389.94;5062455;28;19967;-45
2023/01/07 10:31:20;;;;;;;;;;;;;;;14.11;100.00;96380.47;5053544;28;19975;-45
2023/01/07 10:33:48;;;;;;;;;;;;;;;13.83;100.00;96374.69;5057329;28;19956;-48
2023/01/07 10:36:19;;;;;;;;;;;;;;;13.97;100.00;96371.38;5062617;28;19956;-45
2023/01/07 10:38:51;;;;;;;;;;;;;;;14.69;100.00;96360.75;5061337;28;19959;-42
2023/01/07 10:41:21;;;;;;;;;;;;;;;13.82;100.00;96366.91;5057847;28;19960;-40
2023/01/07 10:43:55;;;;;;;;;;;;;;;13.95;100.00;96365.41;5061189;28;19974;-42
2023/01/07 10:46:27;;;;;;;;;;;;;;;13.46;100.00;96357.47;5056835;28;19967;-45
2023/01/07 10:49:01;;;;;;;;;;;;;;;13.22;100.00;96347.66;5062519;28;20462;-40
2023/01/07 10:51:37;;;;;;;;;;;;;;;13.70;100.00;96340.75;5060476;28;19960;-44
2023/01/07 10:54:07;;;;;;;;;;;;;;;13.91;100.00;96342.06;5060113;28;19959;-40
2023/01/07 10:56:36;;;;;;;;;;;;;;;12.98;100.00;96344.97;5052578;28;19975;-43
2023/01/07 10:59:04;;;;;;;;;;;;;;;13.10;100.00;96329.59;5056156;28;19960;-40
2023/01/07 11:01:33;;;;;;;;;;;;;;;13.61;100.00;96332.97;5054637;28;19979;-44
2023/01/07 11:04:01;;;;;;;;;;;;;;;13.95;100.00;96335.41;5055736;28;19967;-44
2023/01/07 11:06:33;;;;;;;;;;;;;;;13.74;100.00;96333.28;5051851;28;20369;-43
2023/01/07 11:09:03;;;;;;;;;;;;;;;14.08;100.00;96326.94;5068462;28;19967;-40
2023/01/07 11:11:32;;;;;;;;;;;;;;;14.30;100.00;96325.38;5062383;28;19952;-41
2023/01/07 11:14:02;;;;;;;;;;;;;;;14.04;100.00;96315.00;5062943;28;19971;-44
2023/01/07 11:16:31;;;;;;;;;;;;;;;13.73;100.00;96318.41;5063066;28;19963;-39
2023/01/07 11:19:00;;;;;;;;;;;;;;;13.97;100.00;96310.41;5057573;28;19966;-43
2023/01/07 11:21:32;;;;;;;;;;;;;;;14.41;100.00;96301.94;5062137;28;19982;-43
2023/01/07 11:24:24;;;;;;;;;;;;;;;13.98;100.00;96298.78;5059612;28;19979;-39
2023/01/07 11:26:53;;;;;;;;;;;;;;;14.23;100.00;96298.72;5055555;28;19967;-41
2023/01/07 11:29:23;;;;;;;;;;;;;;;13.92;100.00;96285.38;5054321;28;20423;-48
2023/01/07 11:31:52;;;;;;;;;;;;;;;14.27;100.00;96288.59;5049774;28;20019;-43
2023/01/07 11:34:22;;;;;;;;;;;;;;;14.55;100.00;96273.06;5059043;28;19963;-40
2023/01/07 11:36:51;;;;;;;;;;;;;;;14.02;100.00;96270.94;5054055;28;19952;-40
2023/01/07 11:39:19;;;;;;;;;;;;;;;14.48;100.00;96271.06;5054387;28;19979;-43
2023/01/07 11:41:55;;;;;;;;;;;;;;;15.77;100.00;96258.88;5053788;28;20018;-40
2023/01/07 11:44:23;;;;;;;;;;;;;;;15.14;100.00;96252.09;5050636;28;19975;-46
2023/01/07 11:46:51;;;;;;;;;;;;;;;15.28;100.00;96255.81;5059007;28;19963;-43
2023/01/07 11:49:21;;;;;;;;;;;;;;;14.54;100.00;96252.84;5057888;28;20459;-39
2023/01/07 11:51:49;;;;;;;;;;;;;;;14.36;100.00;96248.59;5049808;28;19975;-41
2023/01/07 11:54:19;;;;;;;;;;;;;;;14.30;100.00;96241.31;5052102;28;20042;-40
2023/01/07 11:56:47;;;;;;;;;;;;;;;15.01;100.00;96234.13;5051921;28;19963;-48
2023/01/07 11:59:23;;;;;;;;;;;;;;;14.72;100.00;96232.97;5053592;28;19983;-46
2023/01/07 12:01:52;;;;;;;;;;;;;;;14.95;100.00;96229.50;5051575;28;20196;-42
2023/01/07 12:04:21;;;;;;;;;;;;;;;14.93;100.00;96231.50;5057646;28;19962;-47
2023/01/07 12:09:37;;;;;;;3.97;3.10;;;;;;;14.62;100.00;96215.63;4976333;27;1309657;-49
2023/01/07 12:14:54;;;;;;;3.40;2.50;;;;;;;14.52;100.00;96205.28;5054163;28;20080;-48
2023/01/07 12:17:25;;;;;;;3.88;2.88;;;;;;;14.52;100.00;96199.97;5040040;28;20132;-47
2023/01/07 12:20:06;;;;;;;3.97;2.60;;;;;;;14.73;100.00;96188.72;5044603;28;20091;-46
2023/01/07 12:22:42;;;;;;;5.47;3.40;;;;;;;14.81;100.00;96183.31;5042494;28;20104;-43
2023/01/07 12:25:44;;;;;;;3.67;2.33;;;;;;;14.52;100.00;96186.69;5042747;28;20550;-43
2023/01/07 12:28:16;;;;;;;3.08;2.40;;;;;;;14.62;100.00;96186.44;5039286;28;20080;-48
2023/01/07 12:30:59;;;;;;;3.30;2.15;;;;;;;14.91;100.00;96183.09;5043749;28;20195;-45
2023/01/07 12:33:39;;;;;;;2.88;2.40;;;;;;;14.75;100.00;96178.72;5040776;28;20088;-49
2023/01/07 12:36:12;;;;;;;4.00;2.67;;;;;;;14.13;100.00;96178.75;5033697;28;20085;-49
2023/01/07 12:38:43;;;;;;;2.78;1.85;;;;;;;14.55;100.00;96177.53;4988372;28;20081;-46
2023/01/07 12:41:18;;;;;;;3.20;1.80;;;;;;;14.63;100.00;96169.53;5059954;28;20590;-44
2023/01/07 12:43:56;;;;;;;3.85;2.30;;;;;;;14.67;100.00;96173.47;5026308;28;20102;-46
2023/01/07 12:46:31;;;;;;;2.50;1.98;;;;;;;14.45;100.00;96175.06;5056560;28;20477;-45
2023/01/07 12:49:05;;;;;;;2.85;2.17;;;;;;;14.90;100.00;96169.00;5057607;28;20723;-46
2023/01/07 12:51:39;;;;;;;2.60;2.20;;;;;;;14.46;100.00;96166.13;5064514;28;20536;-44
2023/01/07 12:54:14;;;;;;;5.07;2.30;;;;;;;15.28;100.00;96165.47;5063738;28;20080;-44